Time;durP1;ratioP1;P1;durP2;ratioP2;P2;SDS_P1;SDS_P2;PMS_P1;PMS_P2;Temp;Humidity;BMP_temperature;BMP_pressure;BME280_temperature;BME280_humidity;BME280_pressure;Samples;Min_cycle;Max_cycle;Signal;HPM_P1;HPM_P2
2023/10/22 00:01:00;;;;;;;5.33;1.00;;;;;;;18.44;100.00;95506.03;5132528;28;20860;-59
2023/10/22 00:03:29;;;;;;;0.50;0.40;;;;;;;18.25;100.00;95513.56;5132359;28;20603;-60
2023/10/22 00:05:57;;;;;;;0.73;0.50;;;;;;;18.28;100.00;95503.00;5132320;28;20479;-60
2023/10/22 00:08:26;;;;;;;0.70;0.30;;;;;;;18.26;100.00;95499.06;5132514;28;20500;-60
2023/10/22 00:10:54;;;;;;;0.50;0.30;;;;;;;18.18;100.00;95486.41;5131574;28;20498;-60
2023/10/22 00:13:23;;;;;;;0.60;0.40;;;;;;;18.19;100.00;95491.44;5132077;27;20434;-59
2023/10/22 00:15:52;;;;;;;0.50;0.40;;;;;;;18.09;100.00;95490.97;5136058;27;20474;-59
2023/10/22 00:18:21;;;;;;;1.53;0.93;;;;;;;18.28;100.00;95486.13;5136482;27;20465;-59
2023/10/22 00:20:50;;;;;;;0.40;0.30;;;;;;;18.40;100.00;95470.97;5136000;27;20465;-59
2023/10/22 00:23:18;;;;;;;0.60;0.40;;;;;;;18.52;100.00;95481.09;5136136;27;20533;-60
2023/10/22 00:25:48;;;;;;;1.23;0.50;;;;;;;18.25;100.00;95474.13;5136303;27;20446;-59
2023/10/22 00:28:16;;;;;;;0.60;0.57;;;;;;;17.93;100.00;95487.13;5136669;27;20435;-60
2023/10/22 00:30:48;;;;;;;0.80;0.50;;;;;;;17.70;100.00;95473.03;5136598;27;20492;-59
2023/10/22 00:33:16;;;;;;;0.40;0.30;;;;;;;17.75;100.00;95491.66;5136579;27;20438;-60
2023/10/22 00:35:56;;;;;;;0.63;0.63;;;;;;;17.80;100.00;95488.81;5136378;27;20886;-59
2023/10/22 00:38:25;;;;;;;0.50;0.40;;;;;;;18.01;100.00;95502.47;5136300;27;20521;-59
2023/10/22 00:40:53;;;;;;;0.50;0.40;;;;;;;18.13;100.00;95494.59;5121943;27;21073;-59
2023/10/22 00:43:22;;;;;;;1.03;0.80;;;;;;;18.29;100.00;95461.63;5136273;27;20434;-60
2023/10/22 00:45:50;;;;;;;1.00;0.40;;;;;;;18.21;100.00;95456.28;5136029;27;20789;-60
2023/10/22 00:48:20;;;;;;;0.60;0.40;;;;;;;18.26;100.00;95482.97;5135671;27;20528;-59
2023/10/22 00:50:49;;;;;;;0.40;0.30;;;;;;;17.90;100.00;95453.69;5135924;27;20429;-60
2023/10/22 00:53:21;;;;;;;0.50;0.30;;;;;;;18.16;100.00;95453.75;5135720;27;20898;-60
2023/10/22 00:55:50;;;;;;;0.70;0.40;;;;;;;18.00;100.00;95482.09;5135752;27;20526;-60
2023/10/22 00:58:21;;;;;;;0.60;0.50;;;;;;;17.71;100.00;95486.09;5135382;27;20522;-59
2023/10/22 01:00:49;;;;;;;14.57;3.03;;;;;;;17.89;100.00;95478.91;5135574;27;20438;-60
2023/10/22 01:03:18;;;;;;;0.50;0.30;;;;;;;17.66;100.00;95478.19;5135577;27;20854;-59
2023/10/22 01:05:47;;;;;;;0.90;0.90;;;;;;;17.89;100.00;95480.78;5135648;27;20442;-60
2023/10/22 01:08:16;;;;;;;0.73;0.73;;;;;;;17.96;100.00;95478.47;5135439;27;20927;-59
2023/10/22 01:10:46;;;;;;;0.87;0.87;;;;;;;18.13;100.00;95467.78;5135217;27;20439;-59
2023/10/22 01:13:15;;;;;;;0.60;0.40;;;;;;;18.07;100.00;95472.50;5134575;27;20434;-59
2023/10/22 01:15:43;;;;;;;0.40;0.30;;;;;;;17.72;100.00;95468.13;5135092;27;20963;-60
2023/10/22 01:18:12;;;;;;;5.07;0.70;;;;;;;17.76;100.00;95445.75;5134998;27;20426;-60
2023/10/22 01:20:41;;;;;;;0.70;0.70;;;;;;;17.89;100.00;95454.78;5135428;27;20444;-59
2023/10/22 01:23:12;;;;;;;0.60;0.60;;;;;;;17.96;100.00;95443.59;5135266;27;20469;-59
2023/10/22 01:25:40;;;;;;;0.50;0.40;;;;;;;17.96;100.00;95446.28;5133690;27;20474;-59
2023/10/22 01:28:09;;;;;;;0.40;0.30;;;;;;;17.93;100.00;95454.94;5134616;27;20438;-60
2023/10/22 01:30:37;;;;;;;0.97;0.50;;;;;;;17.93;100.00;95455.75;5134699;27;20445;-59
2023/10/22 01:33:06;;;;;;;0.80;0.40;;;;;;;17.90;100.00;95458.25;5135230;27;20438;-59
2023/10/22 01:35:35;;;;;;;1.07;0.63;;;;;;;17.93;100.00;95455.75;5134686;27;20517;-59
2023/10/22 01:38:04;;;;;;;0.50;0.50;;;;;;;17.97;100.00;95470.09;5135092;27;20813;-59
2023/10/22 01:40:35;;;;;;;0.60;0.30;;;;;;;18.04;100.00;95472.31;5135142;27;20487;-59
2023/10/22 01:43:03;;;;;;;0.50;0.30;;;;;;;17.69;100.00;95466.84;5134763;27;20451;-59
2023/10/22 01:45:32;;;;;;;0.80;0.40;;;;;;;17.55;100.00;95471.53;5134467;27;20959;-59
2023/10/22 01:48:00;;;;;;;0.50;0.33;;;;;;;17.41;100.00;95481.53;5134956;27;20477;-59
2023/10/22 01:50:30;;;;;;;0.60;0.53;;;;;;;17.44;100.00;95459.47;5133690;27;20441;-59
2023/10/22 01:52:58;;;;;;;0.50;0.50;;;;;;;17.68;100.00;95473.31;5134557;27;20434;-58
2023/10/22 01:55:27;;;;;;;0.60;0.50;;;;;;;17.39;100.00;95497.13;5134533;27;20978;-59
2023/10/22 01:57:57;;;;;;;0.50;0.40;;;;;;;17.52;100.00;95498.97;5134523;27;20441;-59
2023/10/22 02:00:25;;;;;;;1.47;0.50;;;;;;;17.62;100.00;95492.53;5134776;27;20473;-59
2023/10/22 02:02:53;;;;;;;0.60;0.50;;;;;;;17.55;100.00;95503.72;5134309;27;21170;-58
2023/10/22 02:05:22;;;;;;;0.50;0.40;;;;;;;17.28;100.00;95509.19;5134922;27;20491;-58
2023/10/22 02:07:51;;;;;;;0.60;0.53;;;;;;;17.18;100.00;95516.69;5133695;27;20434;-58
2023/10/22 02:10:20;;;;;;;0.50;0.40;;;;;;;17.16;100.00;95522.34;5134889;27;20776;-58
2023/10/22 02:12:50;;;;;;;0.60;0.60;;;;;;;17.00;100.00;95507.75;5133868;27;20442;-57
2023/10/22 02:15:20;;;;;;;0.63;0.60;;;;;;;16.86;100.00;95507.81;5133452;27;20488;-58
2023/10/22 02:17:49;;;;;;;0.60;0.50;;;;;;;16.81;100.00;95496.41;5133884;27;20563;-58
2023/10/22 02:20:17;;;;;;;0.50;0.50;;;;;;;16.83;100.00;95487.00;5134143;27;20829;-58
2023/10/22 02:22:46;;;;;;;1.10;0.50;;;;;;;17.09;100.00;95481.81;5134362;27;20431;-57
2023/10/22 02:25:15;;;;;;;0.73;0.73;;;;;;;17.27;100.00;95496.09;5134277;27;20453;-56
2023/10/22 02:27:43;;;;;;;0.70;0.53;;;;;;;17.31;100.00;95494.38;5133439;27;20505;-58
2023/10/22 02:30:13;;;;;;;1.07;1.03;;;;;;;17.37;100.00;95514.59;5127150;27;20812;-58
2023/10/22 02:32:43;;;;;;;0.70;0.70;;;;;;;17.38;100.00;95492.09;5133923;27;20487;-57
2023/10/22 02:35:11;;;;;;;0.70;0.50;;;;;;;17.31;100.00;95487.13;5133683;27;20529;-58
2023/10/22 02:37:40;;;;;;;0.50;0.50;;;;;;;17.40;100.00;95476.47;5133765;27;20474;-58
2023/10/22 02:40:10;;;;;;;0.60;0.40;;;;;;;17.48;100.00;95481.09;5133940;27;20443;-58
2023/10/22 02:42:38;;;;;;;0.60;0.43;;;;;;;17.58;100.00;95481.63;5133044;27;20499;-58
2023/10/22 02:45:07;;;;;;;1.13;0.60;;;;;;;17.43;100.00;95484.69;5134042;27;20510;-58
2023/10/22 02:47:36;;;;;;;0.67;0.67;;;;;;;17.57;100.00;95477.38;5133576;27;20487;-58
2023/10/22 02:50:08;;;;;;;0.67;0.50;;;;;;;17.20;100.00;95460.94;5133890;27;20478;-57
2023/10/22 02:52:36;;;;;;;0.50;0.50;;;;;;;17.01;100.00;95471.84;5133078;27;20948;-57
2023/10/22 02:55:05;;;;;;;0.90;0.70;;;;;;;17.31;100.00;95486.34;5133495;27;20442;-58
2023/10/22 02:57:34;;;;;;;1.23;1.20;;;;;;;17.38;100.00;95487.50;5133588;27;21055;-57
2023/10/22 03:00:02;;;;;;;0.50;0.40;;;;;;;17.44;100.00;95491.63;5133151;27;20997;-57
2023/10/22 03:02:31;;;;;;;1.30;0.93;;;;;;;17.29;100.00;95478.63;5133336;27;20817;-57
2023/10/22 03:04:59;;;;;;;0.70;0.60;;;;;;;17.44;100.00;95477.44;5129061;27;20488;-58
2023/10/22 03:07:29;;;;;;;1.53;0.53;;;;;;;17.35;100.00;95482.78;5125755;27;20438;-58
2023/10/22 03:09:58;;;;;;;2.73;0.80;;;;;;;17.27;100.00;95480.81;5133548;27;20933;-58
2023/10/22 03:12:26;;;;;;;0.77;0.40;;;;;;;17.05;100.00;95484.31;5132926;27;20470;-57
2023/10/22 03:14:54;;;;;;;0.53;0.30;;;;;;;16.97;100.00;95486.94;5132950;27;20469;-57
2023/10/22 03:17:23;;;;;;;1.60;0.60;;;;;;;16.97;100.00;95478.91;5132978;27;20880;-57
2023/10/22 03:19:51;;;;;;;0.83;0.83;;;;;;;17.06;100.00;95479.75;5132973;27;20518;-58
2023/10/22 03:22:20;;;;;;;3.10;0.87;;;;;;;17.08;100.00;95472.19;5133130;27;20556;-57
2023/10/22 03:24:51;;;;;;;0.80;0.77;;;;;;;17.08;100.00;95467.63;5132942;27;20495;-57
2023/10/22 03:27:20;;;;;;;0.60;0.60;;;;;;;17.31;100.00;95449.63;5132231;27;20461;-58
2023/10/22 03:29:49;;;;;;;1.87;0.57;;;;;;;17.43;100.00;95457.88;5132955;27;20441;-57
2023/10/22 03:32:17;;;;;;;1.00;0.50;;;;;;;17.39;100.00;95461.50;5132350;27;20461;-57
2023/10/22 03:34:46;;;;;;;1.20;1.10;;;;;;;17.40;100.00;95468.44;5132932;27;20442;-58
2023/10/22 03:37:14;;;;;;;0.70;0.70;;;;;;;17.39;100.00;95467.66;5132343;27;20470;-57
2023/10/22 03:39:43;;;;;;;0.70;0.70;;;;;;;17.44;100.00;95466.72;5133274;27;20469;-57
2023/10/22 03:42:13;;;;;;;1.10;0.50;;;;;;;17.46;100.00;95462.63;5132048;27;20446;-57
2023/10/22 03:44:41;;;;;;;1.60;0.83;;;;;;;17.46;100.00;95451.91;5132704;27;20526;-57
2023/10/22 03:47:10;;;;;;;0.50;0.30;;;;;;;17.35;100.00;95442.59;5132526;28;20434;-57
2023/10/22 03:49:38;;;;;;;2.57;0.40;;;;;;;16.88;100.00;95419.94;5132043;27;20993;-57
2023/10/22 03:52:07;;;;;;;0.70;0.70;;;;;;;16.92;100.00;95442.34;5105666;28;20430;-57
2023/10/22 03:54:35;;;;;;;0.60;0.50;;;;;;;16.92;100.00;95446.91;5132066;28;20457;-57
2023/10/22 03:57:05;;;;;;;3.43;0.90;;;;;;;17.07;100.00;95454.56;5132958;28;20466;-57
2023/10/22 03:59:35;;;;;;;1.87;1.27;;;;;;;16.90;100.00;95449.88;5132601;28;20462;-57
2023/10/22 04:02:04;;;;;;;0.70;0.40;;;;;;;17.03;100.00;95458.94;5132348;28;21082;-57
2023/10/22 04:04:32;;;;;;;0.60;0.50;;;;;;;16.68;100.00;95454.44;5132514;28;20434;-57
2023/10/22 04:07:02;;;;;;;3.47;1.87;;;;;;;16.43;100.00;95451.25;5106045;28;20435;-57
2023/10/22 04:09:31;;;;;;;0.77;0.63;;;;;;;16.49;100.00;95441.97;5132635;28;20443;-57
2023/10/22 04:11:59;;;;;;;0.70;0.67;;;;;;;16.79;100.00;95458.47;5132185;28;20916;-58
2023/10/22 04:14:28;;;;;;;1.00;0.80;;;;;;;16.85;100.00;95451.91;5131977;28;20496;-58
2023/10/22 04:16:58;;;;;;;0.60;0.60;;;;;;;16.98;100.00;95456.38;5131888;28;20435;-57
2023/10/22 04:19:26;;;;;;;1.00;0.90;;;;;;;16.89;100.00;95434.91;5132220;28;20434;-57
2023/10/22 04:21:54;;;;;;;0.80;0.80;;;;;;;16.99;100.00;95447.25;5132731;28;20435;-57
2023/10/22 04:24:23;;;;;;;3.03;0.87;;;;;;;16.91;100.00;95467.53;5120123;28;20521;-58
2023/10/22 04:26:51;;;;;;;1.57;1.47;;;;;;;16.65;100.00;95471.09;5130253;28;20999;-58
2023/10/22 04:29:21;;;;;;;0.73;0.73;;;;;;;16.95;100.00;95473.84;5124280;28;20440;-58
2023/10/22 04:31:49;;;;;;;1.23;1.13;;;;;;;17.11;100.00;95490.34;5122754;28;20941;-58
2023/10/22 04:34:20;;;;;;;6.27;2.10;;;;;;;16.69;100.00;95493.50;5131421;28;20431;-58
2023/10/22 04:36:48;;;;;;;1.03;0.93;;;;;;;16.75;100.00;95486.91;5132179;28;20473;-58
2023/10/22 04:39:16;;;;;;;0.60;0.40;;;;;;;16.93;100.00;95484.06;5131311;28;20470;-58
2023/10/22 04:41:45;;;;;;;0.70;0.70;;;;;;;16.94;100.00;95485.66;5131657;28;20935;-57
2023/10/22 04:44:13;;;;;;;0.83;0.70;;;;;;;16.82;100.00;95481.97;5130971;28;20438;-57
2023/10/22 04:46:42;;;;;;;0.80;0.50;;;;;;;16.94;100.00;95485.66;5131885;28;20518;-57
2023/10/22 04:49:10;;;;;;;0.60;0.47;;;;;;;16.97;100.00;95486.94;5131225;28;20845;-57
2023/10/22 04:51:40;;;;;;;0.67;0.67;;;;;;;17.00;100.00;95489.03;5131451;28;20455;-57
2023/10/22 04:54:09;;;;;;;0.50;0.50;;;;;;;17.13;100.00;95491.59;5132305;28;20529;-57
2023/10/22 04:56:37;;;;;;;1.17;1.13;;;;;;;16.71;100.00;95424.41;5131628;28;20915;-58
2023/10/22 04:59:06;;;;;;;1.07;0.80;;;;;;;16.92;100.00;95506.59;5131549;28;20505;-57
2023/10/22 05:01:34;;;;;;;0.70;0.47;;;;;;;16.55;100.00;95490.06;5133634;27;20438;-58
2023/10/22 05:04:03;;;;;;;2.40;0.67;;;;;;;16.69;100.00;95507.69;5135386;27;20760;-57
2023/10/22 05:06:31;;;;;;;1.00;1.00;;;;;;;16.75;100.00;95511.81;5135132;27;20462;-57
2023/10/22 05:09:02;;;;;;;0.80;0.80;;;;;;;16.88;100.00;95496.78;5135288;27;20446;-56
2023/10/22 05:11:32;;;;;;;4.53;3.00;;;;;;;17.03;100.00;95515.16;5135042;27;20523;-56
2023/10/22 05:14:00;;;;;;;3.20;1.03;;;;;;;17.16;100.00;95514.31;5134691;27;20484;-56
2023/10/22 05:16:28;;;;;;;3.00;1.00;;;;;;;16.97;100.00;95532.47;5134505;27;20430;-56
2023/10/22 05:18:57;;;;;;;0.80;0.70;;;;;;;16.67;100.00;95530.47;5134644;27;20502;-56
2023/10/22 05:21:26;;;;;;;1.50;1.40;;;;;;;16.70;100.00;95532.53;5135059;27;20553;-56
2023/10/22 05:23:54;;;;;;;0.87;0.87;;;;;;;16.98;100.00;95544.75;5135232;27;20466;-56
2023/10/22 05:26:24;;;;;;;1.97;1.07;;;;;;;17.09;100.00;95532.69;5131945;27;20474;-56
2023/10/22 05:28:54;;;;;;;0.70;0.50;;;;;;;17.20;100.00;95538.63;5132584;27;20446;-60
2023/10/22 05:31:22;;;;;;;1.17;1.07;;;;;;;17.21;100.00;95540.97;5106968;27;20430;-58
2023/10/22 05:33:51;;;;;;;0.60;0.60;;;;;;;16.77;100.00;95484.75;5132827;27;20932;-57
2023/10/22 05:36:26;;;;;;;1.10;1.00;;;;;;;17.14;100.00;95564.72;5132952;27;20456;-58
2023/10/22 05:38:55;;;;;;;0.50;0.50;;;;;;;17.28;100.00;95548.59;5133662;27;20577;-58
2023/10/22 05:41:26;;;;;;;2.10;0.80;;;;;;;17.45;100.00;95552.19;5133975;27;20517;-59
2023/10/22 05:43:59;;;;;;;1.57;1.17;;;;;;;17.03;100.00;95478.47;5134512;27;20499;-58
2023/10/22 05:46:28;;;;;;;2.67;2.57;;;;;;;17.69;100.00;95558.00;5134648;27;20491;-59
2023/10/22 05:48:56;;;;;;;1.57;0.80;;;;;;;17.73;100.00;95561.63;5134021;27;20458;-58
2023/10/22 05:51:25;;;;;;;0.90;0.80;;;;;;;17.80;100.00;95565.78;5134539;27;20932;-58
2023/10/22 05:53:53;;;;;;;1.73;1.30;;;;;;;17.69;100.00;95536.56;5134248;27;20444;-57
2023/10/22 05:56:23;;;;;;;1.60;1.50;;;;;;;17.73;100.00;95567.00;5134349;27;20435;-58
2023/10/22 05:58:53;;;;;;;0.80;0.60;;;;;;;17.87;100.00;95576.84;5134009;27;21128;-58
2023/10/22 06:01:21;;;;;;;1.90;0.50;;;;;;;17.88;100.00;95581.13;5134172;27;20502;-58
2023/10/22 06:03:50;;;;;;;1.10;1.00;;;;;;;18.06;100.00;95572.06;5134447;27;20434;-58
2023/10/22 06:06:19;;;;;;;1.23;1.10;;;;;;;18.03;100.00;95584.19;5133909;27;20430;-59
2023/10/22 06:08:48;;;;;;;0.60;0.60;;;;;;;17.51;100.00;95510.72;5133840;27;20434;-59
2023/10/22 06:11:17;;;;;;;0.93;0.93;;;;;;;18.22;100.00;95587.41;5134153;27;20435;-57
2023/10/22 06:13:45;;;;;;;2.00;1.80;;;;;;;18.31;100.00;95576.72;5133213;27;20426;-58
2023/10/22 06:16:15;;;;;;;6.67;1.50;;;;;;;18.24;100.00;95603.22;5134212;27;21012;-58
2023/10/22 06:18:44;;;;;;;1.60;1.50;;;;;;;17.89;100.00;95598.78;5134194;27;20478;-59
2023/10/22 06:21:13;;;;;;;1.43;1.03;;;;;;;17.51;100.00;95596.50;5133323;27;20431;-58
2023/10/22 06:23:42;;;;;;;1.77;1.17;;;;;;;17.68;100.00;95606.56;5133822;27;20466;-58
2023/10/22 06:26:11;;;;;;;1.87;1.77;;;;;;;17.73;100.00;95598.41;5133656;27;20916;-58
2023/10/22 06:28:40;;;;;;;0.70;0.57;;;;;;;17.90;100.00;95595.81;5133341;27;20458;-59
2023/10/22 06:31:10;;;;;;;0.70;0.63;;;;;;;17.88;100.00;95591.84;5133602;27;20513;-60
2023/10/22 06:33:41;;;;;;;2.00;1.90;;;;;;;18.22;100.00;95582.06;5132217;27;20430;-59
2023/10/22 06:36:18;;;;;;;0.60;0.50;;;;;;;18.67;100.00;95585.34;5107346;27;20794;-59
2023/10/22 06:38:50;;;;;;;0.57;0.50;;;;;;;18.70;100.00;95592.78;5133496;27;20518;-58
2023/10/22 06:41:22;;;;;;;1.00;1.00;;;;;;;18.63;100.00;95560.25;5133565;27;20477;-58
2023/10/22 06:43:51;;;;;;;1.30;1.30;;;;;;;19.11;100.00;95592.34;5133752;27;20434;-58
2023/10/22 06:46:20;;;;;;;3.13;0.63;;;;;;;19.32;100.00;95581.75;5133471;27;20441;-58
2023/10/22 06:48:50;;;;;;;1.17;1.07;;;;;;;19.38;100.00;95583.22;5133123;27;20430;-59
2023/10/22 06:51:19;;;;;;;0.90;0.40;;;;;;;19.63;100.00;95569.72;5133140;27;20434;-58
2023/10/22 06:53:48;;;;;;;1.57;1.53;;;;;;;19.94;100.00;95582.13;5132988;27;20441;-59
2023/10/22 06:56:17;;;;;;;1.50;0.77;;;;;;;20.11;100.00;95598.25;5133436;27;20434;-58
2023/10/22 06:58:46;;;;;;;0.60;0.60;;;;;;;20.11;100.00;95599.00;5133023;27;20916;-58
2023/10/22 07:01:15;;;;;;;0.70;0.50;;;;;;;20.03;100.00;95583.72;5133452;27;20434;-58
2023/10/22 07:03:45;;;;;;;1.87;1.43;;;;;;;19.98;100.00;95585.78;5106548;27;20431;-57
2023/10/22 07:06:16;;;;;;;1.30;1.20;;;;;;;20.03;100.00;95553.31;5132970;27;20434;-58
2023/10/22 07:08:45;;;;;;;0.80;0.80;;;;;;;20.11;100.00;95600.94;5133120;27;20438;-58
2023/10/22 07:11:14;;;;;;;0.60;0.30;;;;;;;19.86;100.00;95596.41;5133145;27;20434;-57
2023/10/22 07:13:42;;;;;;;1.73;1.10;;;;;;;19.89;100.00;95591.16;5133006;27;20435;-57
2023/10/22 07:16:11;;;;;;;1.33;1.00;;;;;;;19.93;100.00;95586.75;5133026;27;21007;-58
2023/10/22 07:18:40;;;;;;;1.27;0.50;;;;;;;20.21;100.00;95582.50;5133175;27;20434;-58
2023/10/22 07:21:09;;;;;;;1.20;1.10;;;;;;;20.40;100.00;95589.41;5132425;27;20438;-58
2023/10/22 07:23:39;;;;;;;0.50;0.50;;;;;;;20.34;100.00;95575.34;5131004;27;20435;-57
2023/10/22 07:26:07;;;;;;;0.70;0.70;;;;;;;20.11;100.00;95592.88;5131275;27;20486;-57
2023/10/22 07:28:41;;;;;;;1.33;0.83;;;;;;;20.41;100.00;95591.00;5131990;27;20438;-56
2023/10/22 07:31:11;;;;;;;1.30;1.10;;;;;;;21.02;100.00;95582.25;5132473;27;20442;-56
2023/10/22 07:33:40;;;;;;;2.87;1.53;;;;;;;21.59;96.89;95592.41;5132409;27;20549;-55
2023/10/22 07:36:09;;;;;;;1.03;0.60;;;;;;;21.93;91.61;95552.41;5132448;27;20434;-56
2023/10/22 07:38:40;;;;;;;0.93;0.90;;;;;;;22.06;90.01;95551.28;5132025;27;20434;-55
2023/10/22 07:41:15;;;;;;;1.23;0.60;;;;;;;22.72;88.27;95599.72;5132313;27;20453;-56
2023/10/22 07:43:43;;;;;;;1.00;1.00;;;;;;;22.90;84.04;95598.34;5132021;27;20481;-56
2023/10/22 07:46:14;;;;;;;9.33;3.17;;;;;;;23.43;82.16;95594.53;5132458;27;20434;-55
2023/10/22 07:48:44;;;;;;;0.50;0.30;;;;;;;23.81;79.12;95594.03;5131985;27;20888;-55
2023/10/22 07:51:15;;;;;;;0.80;0.80;;;;;;;23.41;78.83;95585.16;5132237;28;20456;-56
2023/10/22 07:53:46;;;;;;;0.50;0.40;;;;;;;23.45;79.69;95576.06;5132288;28;20466;-56
2023/10/22 07:56:18;;;;;;;1.40;0.73;;;;;;;22.95;79.35;95600.03;5132398;28;20470;-56
2023/10/22 07:58:46;;;;;;;2.10;0.40;;;;;;;22.88;81.44;95600.59;5131947;28;20431;-55
2023/10/22 08:01:15;;;;;;;15.07;0.70;;;;;;;23.07;81.06;95597.31;5132545;28;20833;-56
2023/10/22 08:03:43;;;;;;;1.10;0.80;;;;;;;23.29;78.26;95567.06;5132391;28;20426;-57
2023/10/22 08:06:12;;;;;;;0.70;0.70;;;;;;;23.01;80.02;95567.03;5131469;28;20952;-56
2023/10/22 08:08:41;;;;;;;2.73;1.23;;;;;;;23.04;79.84;95562.84;5132246;28;20441;-56
2023/10/22 08:11:10;;;;;;;1.07;1.07;;;;;;;23.44;77.92;95554.72;5131925;28;20854;-56
2023/10/22 08:13:39;;;;;;;9.90;1.03;;;;;;;23.43;78.97;95556.66;5132502;28;20427;-55
2023/10/22 08:16:08;;;;;;;1.23;0.70;;;;;;;23.79;75.97;95555.69;5131838;28;20434;-56
2023/10/22 08:18:36;;;;;;;0.50;0.43;;;;;;;23.61;74.57;95543.59;5131709;28;20449;-56
2023/10/22 08:21:06;;;;;;;0.60;0.43;;;;;;;23.68;74.86;95524.88;5131482;28;20474;-56
2023/10/22 08:23:37;;;;;;;0.50;0.40;;;;;;;23.57;75.60;95551.63;5132117;28;20491;-56
2023/10/22 08:26:07;;;;;;;1.40;0.90;;;;;;;23.94;73.23;95546.78;5131584;28;20565;-56
2023/10/22 08:28:38;;;;;;;1.53;0.40;;;;;;;23.63;73.87;95531.28;5131603;28;21041;-57
2023/10/22 08:31:06;;;;;;;0.50;0.30;;;;;;;23.97;73.32;95538.78;5132157;28;20434;-57
2023/10/22 08:33:35;;;;;;;0.80;0.80;;;;;;;23.44;73.46;95539.28;5132035;28;20434;-56
2023/10/22 08:36:05;;;;;;;0.60;0.37;;;;;;;23.71;73.76;95524.94;5134160;27;20438;-56
2023/10/22 08:38:34;;;;;;;2.10;0.40;;;;;;;23.90;73.34;95521.56;5135240;27;20466;-56
2023/10/22 08:41:06;;;;;;;0.60;0.43;;;;;;;23.35;75.10;95522.41;5136180;27;20983;-56
2023/10/22 08:43:40;;;;;;;0.80;0.53;;;;;;;23.32;75.69;95517.69;5135628;27;20481;-56
2023/10/22 08:46:09;;;;;;;1.10;0.60;;;;;;;23.74;76.07;95520.75;5135911;27;20491;-56
2023/10/22 08:48:38;;;;;;;0.80;0.77;;;;;;;23.83;74.09;95514.03;5135926;27;20479;-56
2023/10/22 08:51:08;;;;;;;1.03;1.03;;;;;;;23.80;74.71;95520.16;5136045;27;20917;-56
2023/10/22 08:53:37;;;;;;;1.67;0.30;;;;;;;24.10;74.27;95522.47;5122026;27;20441;-57
2023/10/22 08:56:06;;;;;;;0.90;0.63;;;;;;;24.76;73.10;95525.97;5135629;27;20517;-57
2023/10/22 08:58:34;;;;;;;3.13;2.40;;;;;;;24.53;72.86;95525.06;5135264;27;20810;-56
2023/10/22 09:01:04;;;;;;;4.43;1.40;;;;;;;24.87;71.64;95531.66;5135228;27;20473;-57
2023/10/22 09:03:33;;;;;;;0.47;0.37;;;;;;;25.13;70.53;95540.75;5135730;27;20788;-57
2023/10/22 09:06:03;;;;;;;0.60;0.60;;;;;;;25.05;70.35;95541.72;5135042;27;20445;-58
2023/10/22 09:08:43;;;;;;;1.10;0.50;;;;;;;24.88;69.30;95520.44;5135012;27;20447;-57
2023/10/22 09:11:16;;;;;;;0.47;0.37;;;;;;;25.10;68.36;95486.41;5135176;27;20994;-57
2023/10/22 09:13:45;;;;;;;0.60;0.60;;;;;;;25.35;69.33;95543.91;5134892;27;20470;-58
2023/10/22 09:16:28;;;;;;;1.07;0.70;;;;;;;25.00;69.99;95546.63;5134983;27;20454;-58
2023/10/22 09:18:57;;;;;;;1.10;0.90;;;;;;;24.81;70.96;95544.69;5135562;27;20435;-58
2023/10/22 09:21:41;;;;;;;0.60;0.47;;;;;;;24.68;70.31;95545.91;5134843;27;20466;-58
2023/10/22 09:24:11;;;;;;;0.87;0.40;;;;;;;24.69;71.16;95536.66;5134650;27;20438;-58
2023/10/22 09:26:45;;;;;;;0.60;0.50;;;;;;;23.85;72.77;95552.41;5134734;27;20512;-60
2023/10/22 09:29:14;;;;;;;0.80;0.43;;;;;;;23.30;74.63;95488.25;5134451;27;20871;-58
2023/10/22 09:31:51;;;;;;;0.97;0.97;;;;;;;24.42;71.95;95543.78;5135401;27;20439;-57
2023/10/22 09:34:26;;;;;;;0.50;0.30;;;;;;;24.57;69.49;95531.31;5135261;27;20449;-57
2023/10/22 09:36:56;;;;;;;0.40;0.30;;;;;;;24.82;69.20;95529.97;5135235;27;20458;-57
2023/10/22 09:39:34;;;;;;;0.40;0.30;;;;;;;25.36;69.55;95507.47;5121572;27;20487;-58
2023/10/22 09:42:05;;;;;;;0.50;0.50;;;;;;;26.09;65.82;95505.31;5134394;27;20772;-57
2023/10/22 09:44:38;;;;;;;1.43;1.33;;;;;;;26.36;65.42;95487.16;5134577;27;20536;-58
2023/10/22 09:47:09;;;;;;;0.63;0.43;;;;;;;26.53;63.93;95485.84;5133627;27;20485;-58
2023/10/22 09:49:39;;;;;;;0.50;0.40;;;;;;;25.97;64.56;95472.13;5134775;27;20936;-57
2023/10/22 09:52:07;;;;;;;0.40;0.30;;;;;;;26.02;64.63;95472.63;5134866;27;20499;-59
2023/10/22 09:54:38;;;;;;;1.43;0.77;;;;;;;25.53;65.44;95466.31;5134534;27;20448;-58
2023/10/22 09:57:13;;;;;;;0.80;0.70;;;;;;;25.46;66.11;95467.00;5133950;27;20944;-58
2023/10/22 09:59:43;;;;;;;0.60;0.40;;;;;;;25.47;68.02;95435.22;5134272;27;20462;-58
2023/10/22 10:02:16;;;;;;;0.50;0.50;;;;;;;26.09;65.85;95466.50;5108058;27;20474;-57
2023/10/22 10:04:53;;;;;;;0.50;0.43;;;;;;;26.09;64.02;95461.84;5133332;27;20828;-57
2023/10/22 10:07:23;;;;;;;0.50;0.50;;;;;;;26.41;64.35;95460.44;5133273;27;20503;-57
2023/10/22 10:09:53;;;;;;;0.40;0.40;;;;;;;26.47;63.32;95450.81;5133075;27;20507;-58
2023/10/22 10:12:24;;;;;;;0.67;0.67;;;;;;;26.72;63.55;95444.94;5133461;27;20430;-59
2023/10/22 10:14:53;;;;;;;3.07;1.23;;;;;;;27.13;63.14;95441.19;5133804;27;20434;-58
2023/10/22 10:17:23;;;;;;;0.70;0.70;;;;;;;27.83;61.97;95427.53;5133834;27;20955;-57
2023/10/22 10:19:51;;;;;;;1.90;0.60;;;;;;;28.39;58.11;95437.34;5133552;27;20431;-56
2023/10/22 10:22:38;;;;;;;0.50;0.43;;;;;;;28.55;57.81;95435.09;5133760;27;21056;-56
2023/10/22 10:25:28;;;;;;;0.50;0.40;;;;;;;28.70;56.68;95420.41;5133667;27;20512;-56
2023/10/22 10:28:00;;;;;;;2.70;0.63;;;;;;;29.40;54.62;95419.88;5133172;27;20828;-56
2023/10/22 10:30:28;;;;;;;0.50;0.50;;;;;;;28.83;54.94;95381.50;5133816;27;20506;-56
2023/10/22 10:32:59;;;;;;;0.50;0.40;;;;;;;28.74;54.07;95342.84;5133771;27;20550;-56
2023/10/22 10:35:45;;;;;;;0.60;0.60;;;;;;;29.29;56.19;95403.50;5132918;27;20433;-55
2023/10/22 10:38:28;;;;;;;0.57;0.57;;;;;;;29.72;54.17;95396.16;5132949;27;20438;-55
2023/10/22 10:40:57;;;;;;;1.13;0.60;;;;;;;30.32;51.59;95387.94;5133582;27;20795;-55
2023/10/22 10:44:14;;;;;;;1.70;1.60;;;;;;;31.51;48.85;95390.63;5133394;27;20491;-55
2023/10/22 10:46:42;;;;;;;1.20;1.10;;;;;;;31.07;50.59;95396.75;5043393;28;21102;-55
2023/10/22 10:49:57;;;;;;;1.43;0.70;;;;;;;30.48;51.42;95393.00;5095866;27;20437;-55
2023/10/22 10:52:25;;;;;;;0.60;0.40;;;;;;;31.54;49.51;95381.63;5133281;27;20864;-54
2023/10/22 10:55:09;;;;;;;0.50;0.40;;;;;;;31.92;47.96;95373.09;5132222;27;20449;-56
2023/10/22 10:57:38;;;;;;;0.67;0.40;;;;;;;32.17;47.65;95383.88;5132776;27;20449;-55
2023/10/22 11:00:09;;;;;;;0.70;0.70;;;;;;;31.64;46.84;95328.69;5132774;27;20499;-55
2023/10/22 11:02:42;;;;;;;0.40;0.40;;;;;;;31.86;46.26;95390.38;5133004;27;20470;-56
2023/10/22 11:05:12;;;;;;;0.80;0.77;;;;;;;31.65;46.63;95382.34;5133214;27;20513;-55
2023/10/22 11:07:44;;;;;;;0.70;0.70;;;;;;;31.48;47.03;95369.50;5132872;27;20773;-55
2023/10/22 11:10:14;;;;;;;0.50;0.43;;;;;;;31.63;47.09;95368.22;5132440;27;20433;-56
2023/10/22 11:12:45;;;;;;;1.00;0.30;;;;;;;32.37;45.14;95370.34;5132359;27;20627;-55
2023/10/22 11:15:16;;;;;;;0.47;0.40;;;;;;;32.46;45.56;95363.19;5132984;27;20939;-56
2023/10/22 11:17:45;;;;;;;1.47;1.17;;;;;;;32.56;44.68;95356.06;5132601;27;20434;-55
2023/10/22 11:20:16;;;;;;;0.63;0.50;;;;;;;32.35;45.09;95364.50;5133195;27;20927;-56
2023/10/22 11:22:45;;;;;;;0.50;0.33;;;;;;;32.88;43.26;95366.66;5132577;27;20474;-56
2023/10/22 11:25:14;;;;;;;0.53;0.53;;;;;;;32.35;42.89;95329.63;5132762;27;20483;-56
2023/10/22 11:27:42;;;;;;;1.00;0.40;;;;;;;31.79;44.12;95335.63;5132681;27;20533;-56
2023/10/22 11:30:11;;;;;;;0.90;0.67;;;;;;;31.42;44.24;95336.28;5132828;27;20890;-56
2023/10/22 11:32:48;;;;;;;0.63;0.63;;;;;;;32.23;44.50;95329.38;5132334;27;20426;-56
2023/10/22 11:35:18;;;;;;;0.40;0.40;;;;;;;32.78;43.29;95324.44;5133221;27;20817;-56
2023/10/22 11:37:47;;;;;;;0.40;0.30;;;;;;;33.24;43.58;95323.84;5132036;27;20490;-56
2023/10/22 11:40:25;;;;;;;0.50;0.40;;;;;;;33.06;42.71;95312.31;5132584;27;20512;-56
2023/10/22 11:42:54;;;;;;;1.80;0.40;;;;;;;33.34;41.96;95316.63;5132787;27;20868;-56